This is the latest recevied weather packets stored in our database for station/object YO8PIC-5. If no packets are shown the sender has not sent any weather packets the latest 10 day(s).
| Time | Temp. | Humidity | Pressure | Rain* | Wind** | Luminosity | Snow |
|---|---|---|---|---|---|---|---|
| 1777606016 | -1.11° C | 81% | 1024.9 hPa | - | - | - | - |
| 1777605116 | -1.11° C | 79% | 1024.9 hPa | - | - | - | - |
| 1777604216 | -1.11° C | 79% | 1024.9 hPa | - | - | - | - |
| 1777603315 | -1.67° C | 78% | 1024.8 hPa | - | - | - | - |
| 1777602415 | -1.67° C | 79% | 1024.9 hPa | - | - | - | - |
| 1777601515 | -1.11° C | 78% | 1024.9 hPa | - | - | - | - |
| 1777600615 | -2.22° C | 85% | 1025 hPa | - | - | - | - |
| 1777599715 | -1.67° C | 86% | 1024.9 hPa | - | - | - | - |
| 1777598814 | -1.11° C | 83% | 1025 hPa | - | - | - | - |
| 1777597914 | -1.11° C | 81% | 1025.1 hPa | - | - | - | - |
| 1777597014 | -1.11° C | 78% | 1025.2 hPa | - | - | - | - |
| 1777596114 | -1.67° C | 80% | 1025 hPa | - | - | - | - |
| 1777595218 | -2.22° C | 79% | 1025 hPa | - | - | - | - |
| 1777594318 | -2.22° C | 77% | 1025 hPa | - | - | - | - |
| 1777593418 | -1.67° C | 75% | 1025 hPa | - | - | - | - |
| 1777592517 | -2.22° C | 75% | 1025.1 hPa | - | - | - | - |
| 1777591617 | -1.67° C | 71% | 1025.2 hPa | - | - | - | - |
| 1777590717 | -1.67° C | 72% | 1025.2 hPa | - | - | - | - |
| 1777589817 | -2.22° C | 73% | 1025.2 hPa | - | - | - | - |
| 1777588917 | -2.22° C | 73% | 1025.3 hPa | - | - | - | - |
| 1777588016 | -1.11° C | 66% | 1025.4 hPa | - | - | - | - |
| 1777587116 | -1.67° C | 68% | 1025.5 hPa | - | - | - | - |
| 1777586216 | -2.22° C | 68% | 1025.4 hPa | - | - | - | - |
| 1777585316 | -2.22° C | 69% | 1025.4 hPa | - | - | - | - |
| 1777584416 | -1.11° C | 62% | 1025.5 hPa | - | - | - | - |
* Rain since midnight (hover to see other rain measurements)
** Current wind speed in m/s (hover to see current wind gust speed)